Time,TemperatureF,DewpointF,PressureIn,WindDirection,WindDirectionDegrees,WindSpeedMPH,WindSpeedGustMPH,Humidity,HourlyPrecipIn,Conditions,Clouds,dailyrainin,SoftwareType,DateUTC
2013-05-05 00:01:00,72.0,66.2,29.86,WNW,292,7.0,17.0,82,0.00,,,0.00,meteohub,2013-05-05 04:01:00,
2013-05-05 00:02:00,72.0,66.2,29.86,West,270,8.0,17.0,82,0.00,,,0.00,meteohub,2013-05-05 04:02:00,
2013-05-05 00:03:00,72.0,66.6,29.86,WNW,292,9.0,17.0,83,0.00,,,0.00,meteohub,2013-05-05 04:03:00,
2013-05-05 00:06:00,72.0,66.9,29.86,WNW,292,9.0,17.0,84,0.00,,,0.00,meteohub,2013-05-05 04:06:00,
2013-05-05 00:12:00,71.1,65.7,29.86,NW,315,9.0,19.0,83,0.00,,,0.00,meteohub,2013-05-05 04:12:00,
2013-05-05 00:17:00,72.0,66.9,29.86,West,270,7.0,19.0,84,0.00,,,0.00,meteohub,2013-05-05 04:17:00,
2013-05-05 00:22:00,72.0,66.6,29.86,NW,315,13.0,19.0,83,0.00,,,0.00,meteohub,2013-05-05 04:22:00,
2013-05-05 00:27:00,72.0,67.5,29.86,West,270,11.0,17.0,86,0.00,,,0.00,meteohub,2013-05-05 04:27:00,
2013-05-05 00:32:00,72.0,66.2,29.86,West,270,7.0,17.0,82,0.00,,,0.00,meteohub,2013-05-05 04:32:00,
2013-05-05 00:37:00,72.0,66.2,29.86,West,270,10.0,17.0,82,0.00,,,0.00,meteohub,2013-05-05 04:37:00,
2013-05-05 00:42:00,72.0,66.2,29.86,WNW,292,10.0,17.0,82,0.00,,,0.00,meteohub,2013-05-05 04:42:00,
2013-05-05 00:47:00,72.0,66.9,29.86,WNW,292,11.0,16.0,84,0.00,,,0.00,meteohub,2013-05-05 04:47:00,
2013-05-05 00:52:00,71.1,64.6,29.86,West,270,10.0,16.0,80,0.00,,,0.00,meteohub,2013-05-05 04:52:00,
2013-05-05 00:58:00,72.0,66.2,29.86,West,270,7.0,16.0,82,0.00,,,0.00,meteohub,2013-05-05 04:58:00,
2013-05-05 01:03:00,72.0,66.2,29.86,WNW,292,9.0,16.0,82,0.00,,,0.00,meteohub,2013-05-05 05:03:00,
2013-05-05 01:08:00,72.0,66.9,29.86,West,270,7.0,16.0,84,0.00,,,0.00,meteohub,2013-05-05 05:08:00,
2013-05-05 01:13:00,72.0,65.5,29.86,West,270,8.0,14.0,80,0.00,,,0.00,meteohub,2013-05-05 05:13:00,
2013-05-05 01:18:00,72.0,65.5,29.85,WNW,292,12.0,15.0,80,0.00,,,0.00,meteohub,2013-05-05 05:18:00,
2013-05-05 01:23:00,72.0,65.5,29.83,West,270,8.0,17.0,80,0.00,,,0.00,meteohub,2013-05-05 05:23:00,
2013-05-05 01:28:00,72.0,65.8,29.83,West,270,6.0,17.0,81,0.00,,,0.00,meteohub,2013-05-05 05:28:00,
2013-05-05 01:34:00,72.0,65.5,29.83,West,270,10.0,17.0,80,0.00,,,0.00,meteohub,2013-05-05 05:34:00,
2013-05-05 01:39:00,72.0,66.2,29.83,NW,315,10.0,15.0,82,0.00,,,0.00,meteohub,2013-05-05 05:39:00,
2013-05-05 01:44:00,72.0,65.5,29.83,West,270,13.0,17.0,80,0.00,,,0.00,meteohub,2013-05-05 05:44:00,
2013-05-05 01:49:00,72.0,66.2,29.83,NW,315,10.0,17.0,82,0.00,,,0.00,meteohub,2013-05-05 05:49:00,
2013-05-05 01:54:00,72.0,66.2,29.83,WNW,292,8.0,17.0,82,0.00,,,0.00,meteohub,2013-05-05 05:54:00,
2013-05-05 01:59:00,72.0,66.2,29.83,West,270,9.0,17.0,82,0.00,,,0.00,meteohub,2013-05-05 05:59:00,
2013-05-05 02:05:00,72.0,66.6,29.83,West,270,10.0,17.0,83,0.00,,,0.00,meteohub,2013-05-05 06:05:00,
2013-05-05 02:10:00,72.0,66.2,29.83,WNW,292,11.0,17.0,82,0.00,,,0.00,meteohub,2013-05-05 06:10:00,
2013-05-05 02:15:00,72.0,66.2,29.83,WNW,292,11.0,16.0,82,0.00,,,0.00,meteohub,2013-05-05 06:15:00,
2013-05-05 02:20:00,72.0,66.2,29.83,WNW,292,11.0,16.0,82,0.00,,,0.00,meteohub,2013-05-05 06:20:00,
2013-05-05 02:25:00,72.0,66.9,29.83,West,270,7.0,16.0,84,0.00,,,0.00,meteohub,2013-05-05 06:25:00,
2013-05-05 02:30:00,72.0,66.2,29.83,NW,315,7.0,19.0,82,0.00,,,0.00,meteohub,2013-05-05 06:30:00,
2013-05-05 02:36:00,72.0,66.2,29.83,West,270,12.0,19.0,82,0.00,,,0.00,meteohub,2013-05-05 06:36:00,
2013-05-05 02:41:00,71.1,64.9,29.83,West,270,10.0,19.0,81,0.00,,,0.00,meteohub,2013-05-05 06:41:00,
2013-05-05 02:46:00,71.1,64.9,29.83,West,270,6.0,18.0,81,0.00,,,0.00,meteohub,2013-05-05 06:46:00,
2013-05-05 02:51:00,71.1,65.3,29.83,NW,315,9.0,18.0,82,0.00,,,0.00,meteohub,2013-05-05 06:51:00,
2013-05-05 02:56:00,71.1,65.3,29.83,WNW,292,11.0,18.0,82,0.00,,,0.00,meteohub,2013-05-05 06:56:00,
2013-05-05 03:01:00,71.1,64.9,29.83,West,270,6.0,17.0,81,0.00,,,0.00,meteohub,2013-05-05 07:01:00,
2013-05-05 03:07:00,71.1,65.3,29.83,West,270,6.0,17.0,82,0.00,,,0.00,meteohub,2013-05-05 07:07:00,
2013-05-05 03:12:00,71.1,64.6,29.82,WNW,292,13.0,18.0,80,0.00,,,0.00,meteohub,2013-05-05 07:12:00,
2013-05-05 03:17:00,71.1,64.9,29.82,West,270,6.0,18.0,81,0.00,,,0.00,meteohub,2013-05-05 07:17:00,
2013-05-05 03:22:00,71.1,65.3,29.82,West,270,8.0,17.0,82,0.00,,,0.00,meteohub,2013-05-05 07:22:00,
2013-05-05 03:27:00,71.1,64.6,29.82,West,270,13.0,17.0,80,0.00,,,0.00,meteohub,2013-05-05 07:27:00,
2013-05-05 03:32:00,71.1,64.6,29.82,WNW,292,11.0,16.0,80,0.00,,,0.00,meteohub,2013-05-05 07:32:00,
2013-05-05 03:37:00,71.1,64.6,29.82,WNW,292,7.0,16.0,80,0.00,,,0.00,meteohub,2013-05-05 07:37:00,
2013-05-05 03:42:00,71.1,64.6,29.82,WNW,292,11.0,17.0,80,0.00,,,0.00,meteohub,2013-05-05 07:42:00,
2013-05-05 03:47:00,71.1,64.6,29.82,West,270,8.0,18.0,80,0.00,,,0.00,meteohub,2013-05-05 07:47:00,
2013-05-05 03:52:00,71.1,63.9,29.83,West,270,12.0,18.0,78,0.00,,,0.00,meteohub,2013-05-05 07:52:00,
2013-05-05 03:57:00,71.1,65.3,29.83,West,270,12.0,19.0,82,0.00,,,0.00,meteohub,2013-05-05 07:57:00,
2013-05-05 04:02:00,71.1,63.9,29.83,WNW,292,9.0,19.0,78,0.00,,,0.00,meteohub,2013-05-05 08:02:00,
2013-05-05 04:07:00,71.1,63.9,29.83,West,270,6.0,19.0,78,0.00,,,0.00,meteohub,2013-05-05 08:07:00,
2013-05-05 04:12:00,71.1,64.2,29.83,WNW,292,7.0,16.0,79,0.00,,,0.00,meteohub,2013-05-05 08:12:00,
2013-05-05 04:17:00,71.1,63.9,29.83,West,270,6.0,16.0,78,0.00,,,0.00,meteohub,2013-05-05 08:17:00,
2013-05-05 04:22:00,71.1,63.9,29.83,WNW,292,10.0,16.0,78,0.00,,,0.00,meteohub,2013-05-05 08:22:00,
2013-05-05 04:27:00,71.1,63.9,29.83,West,270,11.0,17.0,78,0.00,,,0.00,meteohub,2013-05-05 08:27:00,
2013-05-05 04:32:00,71.1,64.6,29.83,West,270,13.0,17.0,80,0.00,,,0.00,meteohub,2013-05-05 08:32:00,
2013-05-05 04:37:00,71.1,63.9,29.83,West,270,9.0,18.0,78,0.00,,,0.00,meteohub,2013-05-05 08:37:00,
2013-05-05 04:42:00,71.1,63.5,29.83,West,270,7.0,18.0,77,0.00,,,0.00,meteohub,2013-05-05 08:42:00,
2013-05-05 04:47:00,71.1,63.9,29.83,West,270,10.0,18.0,78,0.00,,,0.00,meteohub,2013-05-05 08:47:00,
2013-05-05 04:52:00,71.1,63.1,29.83,NW,315,11.0,18.0,76,0.00,,,0.00,meteohub,2013-05-05 08:52:00,
2013-05-05 04:57:00,71.1,62.8,29.83,NW,315,10.0,18.0,75,0.00,,,0.00,meteohub,2013-05-05 08:57:00,
2013-05-05 05:02:00,71.1,63.1,29.83,NW,315,16.0,18.0,76,0.00,,,0.00,meteohub,2013-05-05 09:02:00,
2013-05-05 05:07:00,71.1,63.9,29.83,West,270,10.0,18.0,78,0.00,,,0.00,meteohub,2013-05-05 09:07:00,
2013-05-05 05:12:00,71.1,62.8,29.83,WNW,292,8.0,18.0,75,0.00,,,0.00,meteohub,2013-05-05 09:12:00,
2013-05-05 05:17:00,71.1,62.8,29.83,WNW,292,9.0,16.0,75,0.00,,,0.00,meteohub,2013-05-05 09:17:00,
2013-05-05 05:22:00,71.1,63.5,29.83,WNW,292,14.0,16.0,77,0.00,,,0.00,meteohub,2013-05-05 09:22:00,
2013-05-05 05:27:00,71.1,63.9,29.83,West,270,8.0,18.0,78,0.00,,,0.00,meteohub,2013-05-05 09:27:00,
2013-05-05 05:32:00,71.1,63.9,29.83,West,270,12.0,18.0,78,0.00,,,0.00,meteohub,2013-05-05 09:32:00,
2013-05-05 05:37:00,71.1,63.9,29.83,WSW,247,12.0,17.0,78,0.00,,,0.00,meteohub,2013-05-05 09:37:00,
2013-05-05 05:42:00,71.1,63.9,29.83,WNW,292,7.0,17.0,78,0.00,,,0.00,meteohub,2013-05-05 09:42:00,
2013-05-05 05:47:00,71.1,63.1,29.83,West,270,12.0,17.0,76,0.00,,,0.00,meteohub,2013-05-05 09:47:00,
2013-05-05 05:52:00,71.1,62.8,29.83,WNW,292,9.0,17.0,75,0.00,,,0.00,meteohub,2013-05-05 09:52:00,
2013-05-05 05:57:00,71.1,63.1,29.83,WNW,292,7.0,17.0,76,0.00,,,0.00,meteohub,2013-05-05 09:57:00,
2013-05-05 06:02:00,71.1,63.1,29.83,West,270,6.0,17.0,76,0.00,,,0.00,meteohub,2013-05-05 10:02:00,
2013-05-05 06:07:00,71.1,62.8,29.83,NW,315,10.0,15.0,75,0.00,,,0.00,meteohub,2013-05-05 10:07:00,
2013-05-05 06:12:00,71.1,62.8,29.83,WNW,292,9.0,15.0,75,0.00,,,0.00,meteohub,2013-05-05 10:12:00,
2013-05-05 06:17:00,71.1,63.5,29.83,NW,315,9.0,16.0,77,0.00,,,0.00,meteohub,2013-05-05 10:17:00,
2013-05-05 06:22:00,70.0,61.7,29.83,West,270,15.0,16.0,75,0.00,,,0.00,meteohub,2013-05-05 10:22:00,
2013-05-05 06:27:00,70.0,61.3,29.85,West,270,11.0,19.0,74,0.00,,,0.00,meteohub,2013-05-05 10:27:00,
2013-05-05 06:32:00,70.0,61.3,29.86,WNW,292,7.0,19.0,74,0.00,,,0.00,meteohub,2013-05-05 10:32:00,
2013-05-05 06:37:00,70.0,61.7,29.86,WNW,292,7.0,19.0,75,0.00,,,0.00,meteohub,2013-05-05 10:37:00,
2013-05-05 06:42:00,70.0,61.7,29.86,West,270,8.0,19.0,75,0.00,,,0.00,meteohub,2013-05-05 10:42:00,
2013-05-05 06:47:00,70.0,61.7,29.86,WNW,292,12.0,15.0,75,0.00,,,0.00,meteohub,2013-05-05 10:47:00,
2013-05-05 06:52:00,70.0,62.4,29.87,WNW,292,7.0,15.0,77,0.00,,,0.00,meteohub,2013-05-05 10:52:00,
2013-05-05 06:57:00,70.0,61.7,29.87,WNW,292,8.0,16.0,75,0.00,,,0.00,meteohub,2013-05-05 10:57:00,
2013-05-05 07:02:00,70.0,61.0,29.87,WNW,292,6.0,16.0,73,0.00,,,0.00,meteohub,2013-05-05 11:02:00,
2013-05-05 07:07:00,70.0,61.7,29.88,WNW,292,8.0,16.0,75,0.00,,,0.00,meteohub,2013-05-05 11:07:00,
2013-05-05 07:12:00,70.0,61.7,29.88,WNW,292,12.0,16.0,75,0.00,,,0.00,meteohub,2013-05-05 11:12:00,
2013-05-05 07:17:00,70.0,62.4,29.88,WNW,292,10.0,15.0,77,0.00,,,0.00,meteohub,2013-05-05 11:17:00,
2013-05-05 07:22:00,70.0,61.7,29.88,WNW,292,12.0,15.0,75,0.00,,,0.00,meteohub,2013-05-05 11:22:00,
2013-05-05 07:27:00,70.0,61.7,29.88,West,270,7.0,15.0,75,0.00,,,0.00,meteohub,2013-05-05 11:27:00,
2013-05-05 07:32:00,70.0,61.3,29.88,West,270,9.0,15.0,74,0.00,,,0.00,meteohub,2013-05-05 11:32:00,
2013-05-05 07:37:00,70.0,61.0,29.88,WNW,292,8.0,15.0,73,0.00,,,0.00,meteohub,2013-05-05 11:37:00,
2013-05-05 07:43:00,70.0,61.0,29.90,West,270,10.0,15.0,73,0.00,,,0.00,meteohub,2013-05-05 11:43:00,
2013-05-05 07:48:00,70.0,61.0,29.90,WNW,292,5.0,14.0,73,0.00,,,0.00,meteohub,2013-05-05 11:48:00,
2013-05-05 07:53:00,70.0,60.6,29.90,WNW,292,8.0,14.0,72,0.00,,,0.00,meteohub,2013-05-05 11:53:00,
2013-05-05 07:58:00,70.0,61.3,29.90,WNW,292,12.0,17.0,74,0.00,,,0.00,meteohub,2013-05-05 11:58:00,
2013-05-05 08:04:00,70.0,61.3,29.91,West,270,12.0,17.0,74,0.00,,,0.00,meteohub,2013-05-05 12:04:00,
2013-05-05 08:09:00,70.0,61.3,29.91,WNW,292,8.0,15.0,74,0.00,,,0.00,meteohub,2013-05-05 12:09:00,
2013-05-05 08:14:00,70.0,61.3,29.91,WNW,292,9.0,15.0,74,0.00,,,0.00,meteohub,2013-05-05 12:14:00,
2013-05-05 08:19:00,71.1,62.8,29.91,WNW,292,12.0,15.0,75,0.00,,,0.00,meteohub,2013-05-05 12:19:00,
2013-05-05 08:24:00,70.0,61.7,29.91,WNW,292,13.0,17.0,75,0.00,,,0.00,meteohub,2013-05-05 12:24:00,
2013-05-05 08:30:00,71.1,61.9,29.91,West,270,9.0,17.0,73,0.00,,,0.00,meteohub,2013-05-05 12:30:00,
2013-05-05 08:35:00,70.0,60.1,29.91,WNW,292,9.0,16.0,71,0.00,,,0.00,meteohub,2013-05-05 12:35:00,
2013-05-05 08:40:00,71.1,61.5,29.91,West,270,6.0,16.0,72,0.00,,,0.00,meteohub,2013-05-05 12:40:00,
2013-05-05 08:45:00,71.1,61.2,29.91,West,270,6.0,18.0,71,0.00,,,0.00,meteohub,2013-05-05 12:45:00,
2013-05-05 08:50:00,71.1,61.2,29.91,NW,315,6.0,18.0,71,0.00,,,0.00,meteohub,2013-05-05 12:50:00,
2013-05-05 08:56:00,71.1,60.4,29.91,WNW,292,7.0,21.0,69,0.00,,,0.00,meteohub,2013-05-05 12:56:00,
2013-05-05 09:02:00,72.0,60.8,29.91,West,270,9.0,21.0,68,0.00,,,0.00,meteohub,2013-05-05 13:02:00,
2013-05-05 09:07:00,72.0,60.8,29.91,WNW,292,7.0,18.0,68,0.00,,,0.00,meteohub,2013-05-05 13:07:00,
2013-05-05 09:12:00,72.0,60.4,29.91,West,270,6.0,18.0,67,0.00,,,0.00,meteohub,2013-05-05 13:12:00,
2013-05-05 09:17:00,73.0,61.0,29.91,WNW,292,9.0,18.0,66,0.00,,,0.00,meteohub,2013-05-05 13:17:00,
2013-05-05 09:22:00,72.0,60.4,29.91,WNW,292,16.0,16.0,67,0.00,,,0.00,meteohub,2013-05-05 13:22:00,
2013-05-05 09:27:00,72.0,61.7,29.91,West,270,10.0,20.0,70,0.00,,,0.00,meteohub,2013-05-05 13:27:00,
2013-05-05 09:33:00,72.0,62.1,29.91,West,270,3.0,20.0,71,0.00,,,0.00,meteohub,2013-05-05 13:33:00,
2013-05-05 09:38:00,72.0,60.8,29.91,West,270,10.0,20.0,68,0.00,,,0.00,meteohub,2013-05-05 13:38:00,
2013-05-05 09:43:00,73.0,61.0,29.93,WNW,292,12.0,16.0,66,0.00,,,0.00,meteohub,2013-05-05 13:43:00,
2013-05-05 09:48:00,72.0,60.8,29.93,WNW,292,12.0,17.0,68,0.00,,,0.00,meteohub,2013-05-05 13:48:00,
2013-05-05 09:53:00,71.1,59.9,29.93,West,270,12.0,17.0,68,0.00,,,0.00,meteohub,2013-05-05 13:53:00,
2013-05-05 09:58:00,71.1,59.2,29.93,North,0,6.0,17.0,66,0.00,,,0.00,meteohub,2013-05-05 13:58:00,
2013-05-05 10:04:00,72.0,58.6,29.94,SW,225,6.0,20.0,63,0.00,,,0.00,meteohub,2013-05-05 14:04:00,
2013-05-05 10:09:00,72.0,59.2,29.94,West,270,7.0,20.0,64,0.00,,,0.00,meteohub,2013-05-05 14:09:00,
2013-05-05 10:14:00,72.0,58.6,29.94,West,270,12.0,15.0,63,0.00,,,0.00,meteohub,2013-05-05 14:14:00,
2013-05-05 10:19:00,71.1,57.7,29.94,NW,315,10.0,19.0,63,0.00,,,0.00,meteohub,2013-05-05 14:19:00,
2013-05-05 10:24:00,72.0,59.2,29.94,West,270,4.0,19.0,64,0.00,,,0.00,meteohub,2013-05-05 14:24:00,
2013-05-05 10:29:00,73.0,59.7,29.95,West,270,7.0,19.0,63,0.00,,,0.00,meteohub,2013-05-05 14:29:00,
2013-05-05 10:35:00,73.0,59.2,29.95,SW,225,2.0,16.0,62,0.00,,,0.00,meteohub,2013-05-05 14:35:00,
2013-05-05 10:40:00,73.0,58.8,29.94,WSW,247,4.0,15.0,61,0.00,,,0.00,meteohub,2013-05-05 14:40:00,
2013-05-05 10:45:00,73.0,58.8,29.95,NW,315,7.0,15.0,61,0.00,,,0.00,meteohub,2013-05-05 14:45:00,
2013-05-05 10:50:00,72.0,59.2,29.95,West,270,8.0,17.0,64,0.00,,,0.00,meteohub,2013-05-05 14:50:00,
2013-05-05 10:55:00,72.0,59.9,29.95,WNW,292,4.0,18.0,66,0.00,,,0.00,meteohub,2013-05-05 14:55:00,
2013-05-05 11:01:00,72.0,59.5,29.95,WNW,292,7.0,19.0,65,0.00,,,0.00,meteohub,2013-05-05 15:01:00,
2013-05-05 11:06:00,72.0,58.6,29.95,West,270,10.0,19.0,63,0.00,,,0.00,meteohub,2013-05-05 15:06:00,
2013-05-05 11:11:00,72.0,58.6,29.96,WSW,247,7.0,19.0,63,0.00,,,0.00,meteohub,2013-05-05 15:11:00,
2013-05-05 11:16:00,72.0,58.6,29.96,NW,315,14.0,18.0,63,0.00,,,0.00,meteohub,2013-05-05 15:16:00,
2013-05-05 11:21:00,72.0,58.6,29.96,West,270,12.0,17.0,63,0.00,,,0.00,meteohub,2013-05-05 15:21:00,
2013-05-05 11:26:00,72.0,59.2,29.96,WNW,292,10.0,20.0,64,0.00,,,0.00,meteohub,2013-05-05 15:26:00,
2013-05-05 11:32:00,72.0,58.6,29.96,WNW,292,7.0,20.0,63,0.00,,,0.00,meteohub,2013-05-05 15:32:00,
2013-05-05 11:37:00,72.0,58.3,29.96,West,270,13.0,20.0,62,0.00,,,0.00,meteohub,2013-05-05 15:37:00,
2013-05-05 11:42:00,72.0,58.6,29.96,WNW,292,11.0,22.0,63,0.00,,,0.00,meteohub,2013-05-05 15:42:00,
2013-05-05 11:47:00,72.0,58.3,29.96,NW,315,6.0,22.0,62,0.00,,,0.00,meteohub,2013-05-05 15:47:00,
2013-05-05 11:52:00,72.0,58.6,29.96,West,270,12.0,20.0,63,0.00,,,0.00,meteohub,2013-05-05 15:52:00,
2013-05-05 11:57:00,72.0,58.3,29.96,NW,315,7.0,19.0,62,0.00,,,0.00,meteohub,2013-05-05 15:57:00,
2013-05-05 12:02:00,72.0,58.6,29.96,WNW,292,14.0,19.0,63,0.00,,,0.00,meteohub,2013-05-05 16:02:00,
2013-05-05 12:07:00,72.0,57.7,29.95,NW,315,13.0,19.0,61,0.00,,,0.00,meteohub,2013-05-05 16:07:00,
2013-05-05 12:12:00,72.0,58.6,29.95,West,270,12.0,17.0,63,0.00,,,0.00,meteohub,2013-05-05 16:12:00,
2013-05-05 12:17:00,72.0,58.3,29.95,NW,315,11.0,17.0,62,0.00,,,0.00,meteohub,2013-05-05 16:17:00,
2013-05-05 12:22:00,72.0,58.6,29.95,West,270,16.0,19.0,63,0.00,,,0.00,meteohub,2013-05-05 16:22:00,
2013-05-05 12:27:00,72.0,58.6,29.95,NW,315,8.0,19.0,63,0.00,,,0.00,meteohub,2013-05-05 16:27:00,
2013-05-05 12:32:00,72.0,59.5,29.95,West,270,9.0,19.0,65,0.00,,,0.00,meteohub,2013-05-05 16:32:00,
2013-05-05 12:37:00,72.0,59.5,29.95,NW,315,7.0,19.0,65,0.00,,,0.00,meteohub,2013-05-05 16:37:00,
2013-05-05 12:42:00,72.0,58.3,29.95,West,270,13.0,17.0,62,0.00,,,0.00,meteohub,2013-05-05 16:42:00,
2013-05-05 12:47:00,72.0,58.6,29.95,WNW,292,14.0,17.0,63,0.00,,,0.00,meteohub,2013-05-05 16:47:00,
2013-05-05 12:52:00,72.0,57.7,29.94,West,270,9.0,19.0,61,0.00,,,0.00,meteohub,2013-05-05 16:52:00,
2013-05-05 12:57:00,72.0,57.7,29.95,West,270,12.0,19.0,61,0.00,,,0.00,meteohub,2013-05-05 16:57:00,
2013-05-05 13:02:00,72.0,57.4,29.95,WNW,292,8.0,19.0,60,0.00,,,0.00,meteohub,2013-05-05 17:02:00,
2013-05-05 13:07:00,73.0,58.3,29.95,WNW,292,9.0,19.0,60,0.00,,,0.00,meteohub,2013-05-05 17:07:00,
2013-05-05 13:12:00,72.0,55.9,29.94,WNW,292,9.0,17.0,57,0.00,,,0.00,meteohub,2013-05-05 17:12:00,
2013-05-05 13:17:00,73.0,57.9,29.95,West,270,6.0,19.0,59,0.00,,,0.00,meteohub,2013-05-05 17:17:00,
2013-05-05 13:22:00,73.0,56.8,29.95,West,270,15.0,19.0,57,0.00,,,0.00,meteohub,2013-05-05 17:22:00,
2013-05-05 13:27:00,73.0,57.4,29.95,West,270,9.0,19.0,58,0.00,,,0.00,meteohub,2013-05-05 17:27:00,
2013-05-05 13:32:00,72.0,56.3,29.95,West,270,11.0,20.0,58,0.00,,,0.00,meteohub,2013-05-05 17:32:00,
2013-05-05 13:37:00,72.0,56.3,29.95,West,270,14.0,20.0,58,0.00,,,0.00,meteohub,2013-05-05 17:37:00,
2013-05-05 13:42:00,72.0,57.4,29.95,West,270,7.0,20.0,60,0.00,,,0.00,meteohub,2013-05-05 17:42:00,
2013-05-05 13:47:00,72.0,55.9,29.94,West,270,12.0,20.0,57,0.00,,,0.00,meteohub,2013-05-05 17:47:00,
2013-05-05 13:52:00,73.0,56.5,29.95,West,270,9.0,17.0,56,0.00,,,0.00,meteohub,2013-05-05 17:52:00,
2013-05-05 13:57:00,73.0,56.8,29.95,West,270,10.0,17.0,57,0.00,,,0.00,meteohub,2013-05-05 17:57:00,
2013-05-05 14:02:00,73.0,55.4,29.94,West,270,10.0,19.0,54,0.00,,,0.00,meteohub,2013-05-05 18:02:00,
2013-05-05 14:07:00,73.0,55.9,29.94,West,270,8.0,19.0,55,0.00,,,0.00,meteohub,2013-05-05 18:07:00,
2013-05-05 14:12:00,72.0,55.4,29.94,WNW,292,3.0,19.0,56,0.00,,,0.00,meteohub,2013-05-05 18:12:00,
2013-05-05 14:17:00,73.0,56.5,29.94,WNW,292,12.0,19.0,56,0.00,,,0.00,meteohub,2013-05-05 18:17:00,
2013-05-05 14:22:00,73.0,56.8,29.94,West,270,7.0,20.0,57,0.00,,,0.00,meteohub,2013-05-05 18:22:00,
2013-05-05 14:27:00,73.0,56.8,29.94,West,270,17.0,20.0,57,0.00,,,0.00,meteohub,2013-05-05 18:27:00,
2013-05-05 14:32:00,73.0,58.3,29.94,WNW,292,8.0,20.0,60,0.00,,,0.00,meteohub,2013-05-05 18:32:00,
2013-05-05 14:37:00,73.0,57.9,29.94,WNW,292,11.0,20.0,59,0.00,,,0.00,meteohub,2013-05-05 18:37:00,
2013-05-05 14:42:00,73.0,57.4,29.93,West,270,12.0,20.0,58,0.00,,,0.00,meteohub,2013-05-05 18:42:00,
2013-05-05 14:47:00,73.0,57.9,29.93,WNW,292,9.0,18.0,59,0.00,,,0.00,meteohub,2013-05-05 18:47:00,
2013-05-05 14:52:00,73.0,57.4,29.94,West,270,10.0,18.0,58,0.00,,,0.00,meteohub,2013-05-05 18:52:00,
2013-05-05 14:57:00,73.0,58.3,29.94,West,270,9.0,18.0,60,0.00,,,0.00,meteohub,2013-05-05 18:57:00,
2013-05-05 15:02:00,73.0,56.8,29.94,WNW,292,15.0,16.0,57,0.00,,,0.00,meteohub,2013-05-05 19:02:00,
2013-05-05 15:07:00,73.0,57.4,29.94,West,270,10.0,20.0,58,0.00,,,0.00,meteohub,2013-05-05 19:07:00,
2013-05-05 15:12:00,73.0,58.3,29.94,WSW,247,11.0,20.0,60,0.00,,,0.00,meteohub,2013-05-05 19:12:00,
2013-05-05 15:17:00,73.0,58.3,29.93,West,270,8.0,20.0,60,0.00,,,0.00,meteohub,2013-05-05 19:17:00,
2013-05-05 15:22:00,73.0,57.9,29.93,West,270,13.0,19.0,59,0.00,,,0.00,meteohub,2013-05-05 19:22:00,
2013-05-05 15:27:00,73.0,58.8,29.93,West,270,12.0,19.0,61,0.00,,,0.00,meteohub,2013-05-05 19:27:00,
2013-05-05 15:32:00,73.0,58.3,29.91,West,270,11.0,19.0,60,0.00,,,0.00,meteohub,2013-05-05 19:32:00,
2013-05-05 15:37:00,73.0,57.9,29.91,West,270,15.0,20.0,59,0.00,,,0.00,meteohub,2013-05-05 19:37:00,
2013-05-05 15:42:00,73.0,58.8,29.91,West,270,9.0,20.0,61,0.00,,,0.00,meteohub,2013-05-05 19:42:00,
2013-05-05 15:47:00,73.0,58.3,29.91,West,270,13.0,20.0,60,0.00,,,0.00,meteohub,2013-05-05 19:47:00,
2013-05-05 15:52:00,73.0,58.3,29.91,West,270,11.0,19.0,60,0.00,,,0.00,meteohub,2013-05-05 19:52:00,
2013-05-05 15:57:00,73.0,58.8,29.91,West,270,6.0,19.0,61,0.00,,,0.00,meteohub,2013-05-05 19:57:00,
2013-05-05 16:02:00,73.0,58.8,29.91,West,270,9.0,18.0,61,0.00,,,0.00,meteohub,2013-05-05 20:02:00,
2013-05-05 16:07:00,73.0,58.3,29.91,West,270,10.0,18.0,60,0.00,,,0.00,meteohub,2013-05-05 20:07:00,
2013-05-05 16:12:00,73.9,59.2,29.91,West,270,7.0,19.0,60,0.00,,,0.00,meteohub,2013-05-05 20:12:00,
2013-05-05 16:17:00,73.9,59.2,29.91,West,270,11.0,19.0,60,0.00,,,0.00,meteohub,2013-05-05 20:17:00,
2013-05-05 16:23:00,73.9,58.3,29.91,WNW,292,13.0,16.0,58,0.00,,,0.00,meteohub,2013-05-05 20:23:00,
2013-05-05 16:28:00,73.0,58.3,29.91,WNW,292,9.0,21.0,60,0.00,,,0.00,meteohub,2013-05-05 20:28:00,
2013-05-05 16:33:00,73.9,59.7,29.91,West,270,9.0,21.0,61,0.00,,,0.00,meteohub,2013-05-05 20:33:00,
2013-05-05 16:38:00,73.9,57.7,29.91,West,270,7.0,21.0,57,0.00,,,0.00,meteohub,2013-05-05 20:38:00,
2013-05-05 16:43:00,73.9,58.3,29.91,NNW,337,7.0,19.0,58,0.00,,,0.00,meteohub,2013-05-05 20:43:00,
2013-05-05 16:48:00,73.9,58.6,29.91,WNW,292,9.0,19.0,59,0.00,,,0.00,meteohub,2013-05-05 20:48:00,
2013-05-05 16:54:00,73.9,58.3,29.91,West,270,6.0,16.0,58,0.00,,,0.00,meteohub,2013-05-05 20:54:00,
2013-05-05 16:59:00,73.9,58.6,29.91,WNW,292,15.0,18.0,59,0.00,,,0.00,meteohub,2013-05-05 20:59:00,
2013-05-05 17:04:00,73.9,59.2,29.91,West,270,15.0,18.0,60,0.00,,,0.00,meteohub,2013-05-05 21:04:00,
2013-05-05 17:09:00,73.9,59.7,29.91,WSW,247,9.0,17.0,61,0.00,,,0.00,meteohub,2013-05-05 21:09:00,
2013-05-05 17:14:00,73.9,58.3,29.91,West,270,8.0,22.0,58,0.00,,,0.00,meteohub,2013-05-05 21:14:00,
2013-05-05 17:20:00,73.9,58.3,29.91,WNW,292,19.0,22.0,58,0.00,,,0.00,meteohub,2013-05-05 21:20:00,
2013-05-05 17:25:00,73.0,58.3,29.91,WNW,292,7.0,21.0,60,0.00,,,0.00,meteohub,2013-05-05 21:25:00,
2013-05-05 17:30:00,73.9,59.7,29.91,WSW,247,10.0,19.0,61,0.00,,,0.00,meteohub,2013-05-05 21:30:00,
2013-05-05 17:35:00,73.9,58.6,29.91,West,270,11.0,19.0,59,0.00,,,0.00,meteohub,2013-05-05 21:35:00,
2013-05-05 17:40:00,73.9,60.6,29.91,WNW,292,9.0,19.0,63,0.00,,,0.00,meteohub,2013-05-05 21:40:00,
2013-05-05 17:45:00,73.9,60.1,29.91,WNW,292,10.0,19.0,62,0.00,,,0.00,meteohub,2013-05-05 21:45:00,
2013-05-05 17:50:00,73.0,58.3,29.91,West,270,12.0,18.0,60,0.00,,,0.00,meteohub,2013-05-05 21:50:00,
2013-05-05 17:56:00,73.9,58.3,29.91,WNW,292,8.0,19.0,58,0.00,,,0.00,meteohub,2013-05-05 21:56:00,
2013-05-05 18:01:00,73.0,57.9,29.91,West,270,7.0,19.0,59,0.00,,,0.00,meteohub,2013-05-05 22:01:00,
2013-05-05 18:06:00,73.9,59.2,29.91,WNW,292,9.0,19.0,60,0.00,,,0.00,meteohub,2013-05-05 22:06:00,
2013-05-05 18:11:00,73.0,58.8,29.91,West,270,7.0,19.0,61,0.00,,,0.00,meteohub,2013-05-05 22:11:00,
2013-05-05 18:16:00,73.9,58.6,29.91,West,270,7.0,19.0,59,0.00,,,0.00,meteohub,2013-05-05 22:16:00,
2013-05-05 18:21:00,73.9,58.3,29.93,West,270,10.0,19.0,58,0.00,,,0.00,meteohub,2013-05-05 22:21:00,
2013-05-05 18:27:00,73.9,58.6,29.94,WNW,292,10.0,19.0,59,0.00,,,0.00,meteohub,2013-05-05 22:27:00,
2013-05-05 18:32:00,73.9,57.7,29.94,West,270,6.0,17.0,57,0.00,,,0.00,meteohub,2013-05-05 22:32:00,
2013-05-05 18:37:00,73.0,57.9,29.94,NW,315,6.0,17.0,59,0.00,,,0.00,meteohub,2013-05-05 22:37:00,
2013-05-05 18:42:00,73.9,58.3,29.94,West,270,12.0,17.0,58,0.00,,,0.00,meteohub,2013-05-05 22:42:00,
2013-05-05 18:47:00,73.9,58.3,29.94,West,270,16.0,17.0,58,0.00,,,0.00,meteohub,2013-05-05 22:47:00,
2013-05-05 18:52:00,73.0,57.4,29.94,West,270,9.0,21.0,58,0.00,,,0.00,meteohub,2013-05-05 22:52:00,
2013-05-05 18:57:00,73.0,58.3,29.94,WNW,292,13.0,21.0,60,0.00,,,0.00,meteohub,2013-05-05 22:57:00,
2013-05-05 19:02:00,73.0,58.3,29.94,WNW,292,6.0,21.0,60,0.00,,,0.00,meteohub,2013-05-05 23:02:00,
2013-05-05 19:07:00,73.0,57.9,29.94,West,270,12.0,21.0,59,0.00,,,0.00,meteohub,2013-05-05 23:07:00,
2013-05-05 19:12:00,73.0,58.8,29.94,West,270,9.0,20.0,61,0.00,,,0.00,meteohub,2013-05-05 23:12:00,
2013-05-05 19:17:00,72.0,58.3,29.94,NW,315,3.0,20.0,62,0.00,,,0.00,meteohub,2013-05-05 23:17:00,
2013-05-05 19:22:00,72.0,58.3,29.94,West,270,11.0,20.0,62,0.00,,,0.00,meteohub,2013-05-05 23:22:00,
2013-05-05 19:27:00,72.0,59.2,29.94,West,270,7.0,19.0,64,0.00,,,0.00,meteohub,2013-05-05 23:27:00,
2013-05-05 19:32:00,72.0,59.5,29.94,WSW,247,9.0,17.0,65,0.00,,,0.00,meteohub,2013-05-05 23:32:00,
2013-05-05 19:37:00,72.0,59.9,29.94,WNW,292,14.0,16.0,66,0.00,,,0.00,meteohub,2013-05-05 23:37:00,
2013-05-05 19:42:00,72.0,59.5,29.94,NW,315,2.0,16.0,65,0.00,,,0.00,meteohub,2013-05-05 23:42:00,
2013-05-05 19:47:00,71.1,59.2,29.94,West,270,6.0,17.0,66,0.00,,,0.00,meteohub,2013-05-05 23:47:00,
2013-05-05 19:52:00,71.1,59.2,29.94,West,270,15.0,17.0,66,0.00,,,0.00,meteohub,2013-05-05 23:52:00,
2013-05-05 19:57:00,71.1,59.2,29.95,SSW,202,4.0,17.0,66,0.00,,,0.00,meteohub,2013-05-05 23:57:00,
2013-05-05 20:02:00,71.1,59.2,29.95,WNW,292,8.0,17.0,66,0.00,,,0.00,meteohub,2013-05-06 00:02:00,
2013-05-05 20:07:00,71.1,59.2,29.95,West,270,7.0,17.0,66,0.00,,,0.00,meteohub,2013-05-06 00:07:00,
2013-05-05 20:12:00,71.1,59.5,29.95,West,270,10.0,17.0,67,0.00,,,0.00,meteohub,2013-05-06 00:12:00,
2013-05-05 20:17:00,71.1,59.5,29.95,West,270,12.0,15.0,67,0.00,,,0.00,meteohub,2013-05-06 00:17:00,
2013-05-05 20:22:00,70.0,59.0,29.95,WNW,292,8.0,15.0,68,0.00,,,0.00,meteohub,2013-05-06 00:22:00,
2013-05-05 20:27:00,70.0,59.0,29.95,West,270,7.0,13.0,68,0.00,,,0.00,meteohub,2013-05-06 00:27:00,
2013-05-05 20:32:00,70.0,58.5,29.96,WNW,292,5.0,13.0,67,0.00,,,0.00,meteohub,2013-05-06 00:32:00,
2013-05-05 20:37:00,70.0,59.0,29.96,West,270,7.0,13.0,68,0.00,,,0.00,meteohub,2013-05-06 00:37:00,
2013-05-05 20:42:00,70.0,59.0,29.96,West,270,7.0,12.0,68,0.00,,,0.00,meteohub,2013-05-06 00:42:00,
2013-05-05 20:47:00,70.0,59.0,29.96,West,270,10.0,12.0,68,0.00,,,0.00,meteohub,2013-05-06 00:47:00,
2013-05-05 20:52:00,70.0,58.5,29.96,NW,315,3.0,12.0,67,0.00,,,0.00,meteohub,2013-05-06 00:52:00,
2013-05-05 20:57:00,70.0,58.1,29.96,West,270,6.0,12.0,66,0.00,,,0.00,meteohub,2013-05-06 00:57:00,
2013-05-05 21:02:00,70.0,58.1,29.96,West,270,5.0,11.0,66,0.00,,,0.00,meteohub,2013-05-06 01:02:00,
2013-05-05 21:07:00,70.0,58.5,29.96,West,270,6.0,11.0,67,0.00,,,0.00,meteohub,2013-05-06 01:07:00,
2013-05-05 21:12:00,70.0,59.0,29.96,West,270,6.0,14.0,68,0.00,,,0.00,meteohub,2013-05-06 01:12:00,
2013-05-05 21:17:00,70.0,59.0,29.96,West,270,7.0,10.0,68,0.00,,,0.00,meteohub,2013-05-06 01:17:00,
2013-05-05 21:22:00,70.0,59.0,29.96,West,270,4.0,13.0,68,0.00,,,0.00,meteohub,2013-05-06 01:22:00,
2013-05-05 21:27:00,70.0,58.5,29.96,WSW,247,5.0,13.0,67,0.00,,,0.00,meteohub,2013-05-06 01:27:00,
2013-05-05 21:32:00,70.0,59.0,29.96,WNW,292,3.0,13.0,68,0.00,,,0.00,meteohub,2013-05-06 01:32:00,
2013-05-05 21:37:00,70.0,59.0,29.96,NW,315,5.0,14.0,68,0.00,,,0.00,meteohub,2013-05-06 01:37:00,
2013-05-05 21:42:00,70.0,59.0,29.96,West,270,7.0,14.0,68,0.00,,,0.00,meteohub,2013-05-06 01:42:00,
2013-05-05 21:47:00,70.0,59.4,29.96,West,270,3.0,14.0,69,0.00,,,0.00,meteohub,2013-05-06 01:47:00,
2013-05-05 21:52:00,70.0,59.4,29.96,SW,225,4.0,12.0,69,0.00,,,0.00,meteohub,2013-05-06 01:52:00,
2013-05-05 21:57:00,70.0,59.0,29.96,West,270,6.0,12.0,68,0.00,,,0.00,meteohub,2013-05-06 01:57:00,
2013-05-05 22:02:00,70.0,59.0,29.96,West,270,4.0,12.0,68,0.00,,,0.00,meteohub,2013-05-06 02:02:00,
2013-05-05 22:07:00,70.0,59.0,29.96,WSW,247,6.0,12.0,68,0.00,,,0.00,meteohub,2013-05-06 02:07:00,
2013-05-05 22:12:00,70.0,59.0,29.96,West,270,5.0,12.0,68,0.00,,,0.00,meteohub,2013-05-06 02:12:00,
2013-05-05 22:17:00,70.0,59.0,29.98,WNW,292,7.0,12.0,68,0.00,,,0.00,meteohub,2013-05-06 02:17:00,
2013-05-05 22:22:00,70.0,58.5,29.98,WNW,292,2.0,12.0,67,0.00,,,0.00,meteohub,2013-05-06 02:22:00,
2013-05-05 22:27:00,70.0,59.0,29.98,North,0,7.0,10.0,68,0.00,,,0.00,meteohub,2013-05-06 02:27:00,
2013-05-05 22:32:00,69.1,58.1,29.98,NNW,337,8.0,10.0,68,0.00,,,0.00,meteohub,2013-05-06 02:32:00,
2013-05-05 22:37:00,70.0,59.0,29.98,WSW,247,5.0,11.0,68,0.00,,,0.00,meteohub,2013-05-06 02:37:00,
2013-05-05 22:42:00,69.1,58.8,29.98,West,270,5.0,12.0,70,0.00,,,0.00,meteohub,2013-05-06 02:42:00,
2013-05-05 22:47:00,69.1,58.8,29.98,NW,315,3.0,12.0,70,0.00,,,0.00,meteohub,2013-05-06 02:47:00,
2013-05-05 22:52:00,69.1,59.4,29.98,West,270,6.0,12.0,71,0.00,,,0.00,meteohub,2013-05-06 02:52:00,
2013-05-05 22:57:00,69.1,59.4,29.98,WNW,292,4.0,9.0,71,0.00,,,0.00,meteohub,2013-05-06 02:57:00,
2013-05-05 23:02:00,69.1,59.4,29.98,West,270,5.0,9.0,71,0.00,,,0.00,meteohub,2013-05-06 03:02:00,
2013-05-05 23:07:00,69.1,59.4,29.98,West,270,3.0,9.0,71,0.00,,,0.00,meteohub,2013-05-06 03:07:00,
2013-05-05 23:12:00,69.1,59.4,29.98,West,270,6.0,-999.0,71,0.00,,,0.00,meteohub,2013-05-06 03:12:00,
2013-05-05 23:17:00,69.1,58.8,29.98,WSW,247,6.0,11.0,70,0.00,,,0.00,meteohub,2013-05-06 03:17:00,
2013-05-05 23:22:00,69.1,58.8,29.98,WNW,292,3.0,11.0,70,0.00,,,0.00,meteohub,2013-05-06 03:22:00,
2013-05-05 23:27:00,69.1,58.8,29.98,West,270,6.0,10.0,70,0.00,,,0.00,meteohub,2013-05-06 03:27:00,
2013-05-05 23:32:00,69.1,58.8,29.98,West,270,3.0,9.0,70,0.00,,,0.00,meteohub,2013-05-06 03:32:00,
2013-05-05 23:37:00,69.1,58.8,29.99,WNW,292,6.0,9.0,70,0.00,,,0.00,meteohub,2013-05-06 03:37:00,
2013-05-05 23:42:00,69.1,59.4,29.99,West,270,7.0,9.0,71,0.00,,,0.00,meteohub,2013-05-06 03:42:00,
2013-05-05 23:47:00,69.1,58.8,29.99,West,270,6.0,8.0,70,0.00,,,0.00,meteohub,2013-05-06 03:47:00,
2013-05-05 23:52:00,69.1,59.4,29.99,West,270,2.0,8.0,71,0.00,,,0.00,meteohub,2013-05-06 03:52:00,
2013-05-05 23:57:00,69.1,58.8,30.00,NW,315,1.0,9.0,70,0.00,,,0.00,meteohub,2013-05-06 03:57:00,